Ashland, North Carolina
Current Conditions -  °F | °C
As of 8:15 PM on Tuesday 27 Jan 2015 (Local Time) from KGEV Reporting Station
Clear Clear  
Wind Chill: 14°   Ceiling: Unl
Heat Index: 24°   Visibility: 10mi
Dew Point:   Wind: 9mph
Humidity: 50%   Direction: 310°NW
Pressure: 29.87"   Gusts: 24mph
Location:  36.4481°N, 81.6486°W
Report Text: KGEV 280115Z AUTO 31008G21KT 10SM CLR M04/M13 A2987 RMK AO2 T10441135
Loading
Personal Weather Stations






























Interactive Weather Map New forecast layout! Learn more

10-Day Weather Forecast

Advertisements
Track Severe Weather on mobile